Impacts TAF Board
For situational awareness. Not to be used for flight planning purposes.
IDs:

KSFO - San Francisco Intl, CA, US

Issued at 2336 UTC 15 Oct 2018
Updated at 0144 UTC 16 Oct 2018
Potential Impact None Slight Moderate High
Time<<16/14Z 16/15Z 16/16Z 16/17Z 16/18Z 16/19Z 16/20Z 16/21Z 16/22Z 16/23Z 17/00Z 17/01Z 17/02Z>>
Type PRVL PRVL PRVL PRVL PRVL PRVL PRVL PRVL PRVL PRVL PRVL PRVL PRVL
VIS >6 >6 >6 >6 >6 >6 >6 >6 >6 >6 >6 >6 >6
CIG -- -- -- -- -- -- -- -- -- -- -- -- --
Cover SKC SKC SKC SKC SKC SKC SKC SKC SKC SKC SKC SKC SKC
FltCat VFR VFR VFR VFR VFR VFR VFR VFR VFR VFR VFR VFR VFR
WX -- -- -- -- -- -- -- -- -- -- -- -- --
WDir VRB VRB VRB 100 100 100 100 100 100 300 300 300 300
WSpd 0 0 0 5 5 5 5 5 5 11 11 11 11
WGst -- -- -- -- -- -- -- -- -- -- -- -- --
Raw TAF
KSFO 152336Z 1600/1706 29007KT P6SM SKC
  FM160600 VRB04KT P6SM SKC
  FM161000 00000KT P6SM SKC
  FM161700 10005KT P6SM SKC
  FM162300 30011KT P6SM SKC


METAR Board
Radar Display
Forecast Discussion
For situational awareness. Not to be used for flight planning purposes.